sensor_id;sensor_type;location;lat;lon;timestamp;temperature;humidity
43862;DHT22;29510;52.140;5.034;2023-11-19T00:00:51;14.00;99.90
43862;DHT22;29510;52.140;5.034;2023-11-19T00:10:51;14.00;99.90
43862;DHT22;29510;52.140;5.034;2023-11-19T00:20:52;14.00;99.90
43862;DHT22;29510;52.140;5.034;2023-11-19T00:30:52;14.00;99.90
43862;DHT22;29510;52.140;5.034;2023-11-19T00:40:53;14.00;99.90
43862;DHT22;29510;52.140;5.034;2023-11-19T00:50:54;14.10;99.90
43862;DHT22;29510;52.140;5.034;2023-11-19T01:00:54;13.90;99.90
43862;DHT22;29510;52.140;5.034;2023-11-19T01:10:55;14.00;99.90
43862;DHT22;29510;52.140;5.034;2023-11-19T01:20:55;14.00;99.90
43862;DHT22;29510;52.140;5.034;2023-11-19T01:30:56;13.90;99.90
43862;DHT22;29510;52.140;5.034;2023-11-19T01:40:57;13.80;99.90
43862;DHT22;29510;52.140;5.034;2023-11-19T01:50:58;13.70;99.90
43862;DHT22;29510;52.140;5.034;2023-11-19T02:00:59;13.60;99.90
43862;DHT22;29510;52.140;5.034;2023-11-19T02:11:00;13.50;99.90
43862;DHT22;29510;52.140;5.034;2023-11-19T02:21:00;13.40;99.90
43862;DHT22;29510;52.140;5.034;2023-11-19T02:31:01;13.30;99.90
43862;DHT22;29510;52.140;5.034;2023-11-19T02:41:05;13.20;99.90
43862;DHT22;29510;52.140;5.034;2023-11-19T02:51:06;13.30;93.80
43862;DHT22;29510;52.140;5.034;2023-11-19T03:01:10;13.30;85.00
43862;DHT22;29510;52.140;5.034;2023-11-19T03:11:19;13.10;82.40
43862;DHT22;29510;52.140;5.034;2023-11-19T03:21:28;13.00;76.50
43862;DHT22;29510;52.140;5.034;2023-11-19T03:41:39;12.80;76.70
43862;DHT22;29510;52.140;5.034;2023-11-19T03:51:39;12.80;72.10
43862;DHT22;29510;52.140;5.034;2023-11-19T04:01:41;12.70;65.60
43862;DHT22;29510;52.140;5.034;2023-11-19T04:11:45;12.70;57.40
43862;DHT22;29510;52.140;5.034;2023-11-19T04:21:47;12.60;55.30
43862;DHT22;29510;52.140;5.034;2023-11-19T04:31:48;12.60;56.30
43862;DHT22;29510;52.140;5.034;2023-11-19T04:41:49;12.50;57.40
43862;DHT22;29510;52.140;5.034;2023-11-19T04:51:50;12.50;54.40
43862;DHT22;29510;52.140;5.034;2023-11-19T05:01:51;12.50;52.00
43862;DHT22;29510;52.140;5.034;2023-11-19T05:11:52;12.50;39.70
43862;DHT22;29510;52.140;5.034;2023-11-19T05:21:53;12.40;36.00
43862;DHT22;29510;52.140;5.034;2023-11-19T05:31:53;12.40;22.30
43862;DHT22;29510;52.140;5.034;2023-11-19T05:41:55;12.40;19.60
43862;DHT22;29510;52.140;5.034;2023-11-19T05:52:02;12.40;20.70
43862;DHT22;29510;52.140;5.034;2023-11-19T06:02:03;12.30;21.30
43862;DHT22;29510;52.140;5.034;2023-11-19T06:12:04;12.30;21.10
43862;DHT22;29510;52.140;5.034;2023-11-19T06:22:10;12.30;22.90
43862;DHT22;29510;52.140;5.034;2023-11-19T06:32:10;12.20;24.60
43862;DHT22;29510;52.140;5.034;2023-11-19T06:42:11;12.20;22.80
43862;DHT22;29510;52.140;5.034;2023-11-19T06:52:12;12.20;24.10
43862;DHT22;29510;52.140;5.034;2023-11-19T07:02:12;12.00;26.30
43862;DHT22;29510;52.140;5.034;2023-11-19T07:12:14;12.20;20.50
43862;DHT22;29510;52.140;5.034;2023-11-19T07:22:16;12.20;17.40
43862;DHT22;29510;52.140;5.034;2023-11-19T07:32:16;12.20;16.70
43862;DHT22;29510;52.140;5.034;2023-11-19T07:42:17;12.30;17.40
43862;DHT22;29510;52.140;5.034;2023-11-19T07:52:18;12.40;13.80
43862;DHT22;29510;52.140;5.034;2023-11-19T08:02:18;12.50;17.20
43862;DHT22;29510;52.140;5.034;2023-11-19T08:12:19;12.60;15.10
43862;DHT22;29510;52.140;5.034;2023-11-19T08:22:21;12.60;12.60
43862;DHT22;29510;52.140;5.034;2023-11-19T08:32:23;12.50;12.30
43862;DHT22;29510;52.140;5.034;2023-11-19T08:42:24;12.60;16.50
43862;DHT22;29510;52.140;5.034;2023-11-19T08:52:25;12.50;22.30
43862;DHT22;29510;52.140;5.034;2023-11-19T09:02:26;12.50;35.60
43862;DHT22;29510;52.140;5.034;2023-11-19T09:12:26;12.70;20.40
43862;DHT22;29510;52.140;5.034;2023-11-19T09:22:28;12.80;13.00
43862;DHT22;29510;52.140;5.034;2023-11-19T09:32:28;13.00;2.50
43862;DHT22;29510;52.140;5.034;2023-11-19T09:42:31;13.20;3.40
43862;DHT22;29510;52.140;5.034;2023-11-19T09:52:45;13.20;5.30
43862;DHT22;29510;52.140;5.034;2023-11-19T10:02:46;13.30;5.50
43862;DHT22;29510;52.140;5.034;2023-11-19T10:12:53;13.40;5.40
43862;DHT22;29510;52.140;5.034;2023-11-19T10:22:58;13.40;1.00
43862;DHT22;29510;52.140;5.034;2023-11-19T10:43:15;13.90;1.00
43862;DHT22;29510;52.140;5.034;2023-11-19T10:53:17;14.10;1.00
43862;DHT22;29510;52.140;5.034;2023-11-19T11:03:20;14.40;1.00
43862;DHT22;29510;52.140;5.034;2023-11-19T11:13:23;14.40;1.00
43862;DHT22;29510;52.140;5.034;2023-11-19T11:23:43;14.30;1.00
43862;DHT22;29510;52.140;5.034;2023-11-19T11:44:09;14.90;1.00
43862;DHT22;29510;52.140;5.034;2023-11-19T12:04:28;14.50;1.00
43862;DHT22;29510;52.140;5.034;2023-11-19T12:25:01;14.40;1.00
43862;DHT22;29510;52.140;5.034;2023-11-19T12:35:03;14.40;1.00
43862;DHT22;29510;52.140;5.034;2023-11-19T12:45:07;14.40;1.00
43862;DHT22;29510;52.140;5.034;2023-11-19T12:55:27;14.30;1.00
43862;DHT22;29510;52.140;5.034;2023-11-19T13:05:33;14.30;1.00
43862;DHT22;29510;52.140;5.034;2023-11-19T13:15:45;14.20;1.00
43862;DHT22;29510;52.140;5.034;2023-11-19T13:25:52;14.00;1.00
43862;DHT22;29510;52.140;5.034;2023-11-19T13:35:55;13.80;1.00
43862;DHT22;29510;52.140;5.034;2023-11-19T13:45:56;13.90;1.00
43862;DHT22;29510;52.140;5.034;2023-11-19T13:55:58;13.90;1.00
43862;DHT22;29510;52.140;5.034;2023-11-19T14:05:59;14.00;1.00
43862;DHT22;29510;52.140;5.034;2023-11-19T14:15:59;13.90;1.00
43862;DHT22;29510;52.140;5.034;2023-11-19T14:26:01;13.90;1.00
43862;DHT22;29510;52.140;5.034;2023-11-19T14:36:01;13.90;1.00
43862;DHT22;29510;52.140;5.034;2023-11-19T14:46:02;13.80;1.00
43862;DHT22;29510;52.140;5.034;2023-11-19T14:56:04;13.70;1.00
43862;DHT22;29510;52.140;5.034;2023-11-19T15:06:05;13.70;1.00
43862;DHT22;29510;52.140;5.034;2023-11-19T15:16:07;13.70;1.00
43862;DHT22;29510;52.140;5.034;2023-11-19T15:26:10;13.60;1.00
43862;DHT22;29510;52.140;5.034;2023-11-19T15:36:11;13.70;1.00
43862;DHT22;29510;52.140;5.034;2023-11-19T15:46:12;13.70;1.00
43862;DHT22;29510;52.140;5.034;2023-11-19T15:56:12;13.60;1.00
43862;DHT22;29510;52.140;5.034;2023-11-19T16:06:13;13.60;1.00
43862;DHT22;29510;52.140;5.034;2023-11-19T16:16:13;13.60;1.00
43862;DHT22;29510;52.140;5.034;2023-11-19T16:26:14;13.40;1.00
43862;DHT22;29510;52.140;5.034;2023-11-19T16:36:15;13.30;1.00
43862;DHT22;29510;52.140;5.034;2023-11-19T16:46:16;13.10;13.00
43862;DHT22;29510;52.140;5.034;2023-11-19T16:56:18;12.90;24.90
43862;DHT22;29510;52.140;5.034;2023-11-19T17:06:20;12.90;40.70
43862;DHT22;29510;52.140;5.034;2023-11-19T17:16:21;12.60;76.60
43862;DHT22;29510;52.140;5.034;2023-11-19T17:26:21;12.50;99.90
43862;DHT22;29510;52.140;5.034;2023-11-19T17:36:22;12.30;99.90
43862;DHT22;29510;52.140;5.034;2023-11-19T17:46:24;12.30;99.90
43862;DHT22;29510;52.140;5.034;2023-11-19T17:56:24;12.20;99.90
43862;DHT22;29510;52.140;5.034;2023-11-19T18:06:25;12.10;99.90
43862;DHT22;29510;52.140;5.034;2023-11-19T18:16:25;12.10;99.90
43862;DHT22;29510;52.140;5.034;2023-11-19T18:26:26;12.10;99.90
43862;DHT22;29510;52.140;5.034;2023-11-19T18:36:33;12.10;99.90
43862;DHT22;29510;52.140;5.034;2023-11-19T18:46:35;12.20;99.90
43862;DHT22;29510;52.140;5.034;2023-11-19T18:56:35;12.20;99.90
43862;DHT22;29510;52.140;5.034;2023-11-19T19:06:36;12.20;99.90
43862;DHT22;29510;52.140;5.034;2023-11-19T19:16:39;12.30;99.90
43862;DHT22;29510;52.140;5.034;2023-11-19T19:26:41;12.40;99.90
43862;DHT22;29510;52.140;5.034;2023-11-19T19:36:44;12.50;99.90
43862;DHT22;29510;52.140;5.034;2023-11-19T19:46:44;12.50;99.90
43862;DHT22;29510;52.140;5.034;2023-11-19T19:56:47;12.60;99.90
43862;DHT22;29510;52.140;5.034;2023-11-19T20:06:47;12.70;99.90
43862;DHT22;29510;52.140;5.034;2023-11-19T20:16:49;12.70;99.90
43862;DHT22;29510;52.140;5.034;2023-11-19T20:26:50;12.80;99.90
43862;DHT22;29510;52.140;5.034;2023-11-19T20:36:53;12.90;99.90
43862;DHT22;29510;52.140;5.034;2023-11-19T20:46:54;12.80;99.90
43862;DHT22;29510;52.140;5.034;2023-11-19T20:56:56;12.70;99.90
43862;DHT22;29510;52.140;5.034;2023-11-19T21:06:56;12.80;99.90
43862;DHT22;29510;52.140;5.034;2023-11-19T21:17:00;12.90;99.90
43862;DHT22;29510;52.140;5.034;2023-11-19T21:27:01;13.00;99.90
43862;DHT22;29510;52.140;5.034;2023-11-19T21:37:02;13.00;95.30
43862;DHT22;29510;52.140;5.034;2023-11-19T21:47:03;13.10;89.70
43862;DHT22;29510;52.140;5.034;2023-11-19T21:57:03;13.10;80.50
43862;DHT22;29510;52.140;5.034;2023-11-19T22:07:05;13.00;86.00
43862;DHT22;29510;52.140;5.034;2023-11-19T22:17:05;13.00;68.70
43862;DHT22;29510;52.140;5.034;2023-11-19T22:27:06;12.90;74.20
43862;DHT22;29510;52.140;5.034;2023-11-19T22:37:06;13.00;69.60
43862;DHT22;29510;52.140;5.034;2023-11-19T22:47:07;13.00;81.30
43862;DHT22;29510;52.140;5.034;2023-11-19T22:57:09;12.80;81.70
43862;DHT22;29510;52.140;5.034;2023-11-19T23:07:09;12.90;60.60
43862;DHT22;29510;52.140;5.034;2023-11-19T23:17:10;12.90;56.00
43862;DHT22;29510;52.140;5.034;2023-11-19T23:27:16;13.00;46.60
43862;DHT22;29510;52.140;5.034;2023-11-19T23:37:17;13.00;43.30
43862;DHT22;29510;52.140;5.034;2023-11-19T23:47:18;12.90;58.90
43862;DHT22;29510;52.140;5.034;2023-11-19T23:57:19;12.70;87.50
